createdAt,value
2022-07-31T00:00:27.891Z,17.83
2022-07-31T00:02:55.307Z,17.84
2022-07-31T00:05:23.995Z,17.83
2022-07-31T00:07:52.809Z,17.84
2022-07-31T00:10:20.137Z,17.83
2022-07-31T00:12:47.095Z,17.84
2022-07-31T00:15:14.120Z,17.86
2022-07-31T00:17:43.187Z,17.85
2022-07-31T00:20:13.497Z,17.85
2022-07-31T00:22:42.236Z,17.81
2022-07-31T00:25:11.361Z,17.81
2022-07-31T00:27:39.584Z,17.85
2022-07-31T00:30:07.335Z,17.82
2022-07-31T00:32:34.642Z,17.75
2022-07-31T00:35:01.931Z,17.82
2022-07-31T00:37:28.903Z,17.80
2022-07-31T00:39:55.842Z,17.85
2022-07-31T00:42:26.078Z,17.79
2022-07-31T00:44:53.131Z,17.79
2022-07-31T00:47:22.315Z,17.75
2022-07-31T00:49:51.496Z,17.74
2022-07-31T00:52:18.479Z,17.74
2022-07-31T00:54:45.448Z,17.72
2022-07-31T00:57:12.431Z,17.61
2022-07-31T00:59:39.507Z,17.67
2022-07-31T01:02:08.393Z,17.66
2022-07-31T01:04:35.603Z,17.63
2022-07-31T01:07:03.625Z,17.66
2022-07-31T01:09:31.065Z,17.60
2022-07-31T01:12:16.336Z,17.62
2022-07-31T01:14:54.294Z,17.55
2022-07-31T01:17:23.235Z,17.59
2022-07-31T01:19:52.973Z,17.59
2022-07-31T01:23:05.974Z,17.55
2022-07-31T01:26:00.623Z,17.54
2022-07-31T01:29:07.594Z,17.56
2022-07-31T01:31:43.916Z,17.47
2022-07-31T01:34:42.515Z,17.51
2022-07-31T01:37:23.741Z,17.47
2022-07-31T01:39:59.740Z,17.51
2022-07-31T01:42:29.015Z,17.49
2022-07-31T01:45:01.870Z,17.45
2022-07-31T01:47:31.647Z,17.51
2022-07-31T01:50:00.032Z,17.42
2022-07-31T01:52:30.074Z,17.40
2022-07-31T01:54:59.741Z,17.41
2022-07-31T01:57:29.868Z,17.42
2022-07-31T02:00:02.168Z,17.39
2022-07-31T02:02:30.547Z,17.44
2022-07-31T02:04:58.291Z,17.46
2022-07-31T02:07:26.709Z,17.40
2022-07-31T02:09:58.520Z,17.34
2022-07-31T02:12:33.088Z,17.38
2022-07-31T02:15:09.215Z,17.41
2022-07-31T02:17:37.583Z,17.36
2022-07-31T02:20:08.111Z,17.35
2022-07-31T02:22:35.659Z,17.39
2022-07-31T02:25:06.760Z,17.39
2022-07-31T02:27:57.027Z,17.50
2022-07-31T02:30:22.931Z,17.39
2022-07-31T02:32:50.993Z,17.44
2022-07-31T02:35:18.914Z,17.47
2022-07-31T02:37:50.462Z,17.43
2022-07-31T02:40:19.063Z,17.43
2022-07-31T02:42:47.631Z,17.42
2022-07-31T02:45:15.356Z,17.42
2022-07-31T02:47:42.927Z,17.42
2022-07-31T02:50:10.969Z,17.43
2022-07-31T02:52:38.892Z,17.48
2022-07-31T02:55:06.435Z,17.53
2022-07-31T02:57:33.425Z,17.51
2022-07-31T03:00:00.546Z,17.56
2022-07-31T03:02:36.945Z,17.50
2022-07-31T03:05:05.384Z,17.53
2022-07-31T03:07:32.326Z,17.52
2022-07-31T03:09:59.329Z,17.58
2022-07-31T03:12:26.521Z,17.53
2022-07-31T03:14:55.278Z,17.56
2022-07-31T03:17:22.604Z,17.56
2022-07-31T03:19:49.711Z,17.52
2022-07-31T03:22:16.875Z,17.59
2022-07-31T03:24:44.519Z,17.58
2022-07-31T03:27:11.495Z,17.51
2022-07-31T03:29:41.773Z,17.50
2022-07-31T03:32:10.556Z,17.56
2022-07-31T03:34:37.521Z,17.62
2022-07-31T03:37:06.989Z,17.60
2022-07-31T03:39:34.247Z,17.53
2022-07-31T03:42:03.529Z,17.51
2022-07-31T03:44:32.831Z,17.59
2022-07-31T03:47:00.401Z,17.65
2022-07-31T03:49:28.337Z,17.65
2022-07-31T03:51:55.878Z,17.55
2022-07-31T03:54:22.929Z,17.59
2022-07-31T03:56:52.532Z,17.51
2022-07-31T03:59:20.482Z,17.51
2022-07-31T04:02:10.434Z,17.52
2022-07-31T04:04:37.608Z,17.55
2022-07-31T04:07:05.989Z,17.53
2022-07-31T04:09:33.317Z,17.50
2022-07-31T04:12:00.692Z,17.55
2022-07-31T04:14:27.964Z,17.52
2022-07-31T04:16:54.906Z,17.52
2022-07-31T04:19:21.915Z,17.50
2022-07-31T04:21:50.416Z,17.51
2022-07-31T04:24:18.386Z,17.50
2022-07-31T04:26:45.558Z,17.49
2022-07-31T04:29:12.584Z,17.49
2022-07-31T04:31:39.553Z,17.51
2022-07-31T04:34:06.802Z,17.47
2022-07-31T04:36:33.887Z,17.37
2022-07-31T04:39:01.613Z,17.42
2022-07-31T04:41:28.976Z,17.42
2022-07-31T04:43:57.991Z,17.42
2022-07-31T04:46:25.578Z,17.35
2022-07-31T04:48:52.875Z,17.40
2022-07-31T04:51:24.394Z,17.40
2022-07-31T04:53:51.791Z,17.47
2022-07-31T04:56:36.028Z,17.42
2022-07-31T04:59:12.883Z,17.52
2022-07-31T05:01:41.937Z,17.49
2022-07-31T05:04:11.187Z,17.45
2022-07-31T05:06:45.247Z,17.47
2022-07-31T05:09:19.603Z,17.51
2022-07-31T05:11:52.536Z,17.49
2022-07-31T05:14:21.491Z,17.40
2022-07-31T05:16:49.636Z,17.38
2022-07-31T05:19:17.341Z,17.36
2022-07-31T05:21:53.435Z,17.33
2022-07-31T05:24:33.025Z,17.39
2022-07-31T05:27:02.708Z,17.37
2022-07-31T05:29:31.295Z,17.38
2022-07-31T05:32:00.027Z,17.32
2022-07-31T05:34:31.500Z,17.29
2022-07-31T05:37:02.165Z,17.39
2022-07-31T05:39:30.388Z,17.34
2022-07-31T05:41:57.602Z,17.34
2022-07-31T05:44:24.851Z,17.40
2022-07-31T05:49:19.831Z,17.35
2022-07-31T05:51:47.264Z,17.42
2022-07-31T05:54:14.667Z,17.43
2022-07-31T05:56:41.721Z,17.40
2022-07-31T05:59:09.777Z,17.49
2022-07-31T06:01:37.946Z,17.42
2022-07-31T06:04:04.980Z,17.40
2022-07-31T06:06:34.481Z,17.41
2022-07-31T06:09:04.515Z,17.38
2022-07-31T06:11:32.144Z,17.45
2022-07-31T06:13:59.110Z,17.44
2022-07-31T06:16:26.110Z,17.47
2022-07-31T06:18:53.075Z,17.57
2022-07-31T06:23:45.982Z,17.62
2022-07-31T06:26:13.362Z,17.66
2022-07-31T06:28:49.019Z,17.64
2022-07-31T06:31:22.017Z,17.70
2022-07-31T06:33:51.050Z,17.77
2022-07-31T06:36:19.592Z,17.86
2022-07-31T06:38:46.627Z,17.79
2022-07-31T06:41:33.812Z,17.78
2022-07-31T06:44:00.883Z,17.76
2022-07-31T06:46:28.195Z,17.82
2022-07-31T06:48:55.277Z,17.99
2022-07-31T06:51:31.303Z,17.90
2022-07-31T06:54:00.446Z,17.90
2022-07-31T06:56:31.984Z,17.93
2022-07-31T06:58:59.539Z,17.91
2022-07-31T07:01:26.593Z,17.95
2022-07-31T07:03:53.824Z,17.88
2022-07-31T07:06:21.288Z,17.92
2022-07-31T07:08:48.246Z,17.87
2022-07-31T07:11:15.618Z,17.89
2022-07-31T07:13:46.228Z,17.90
2022-07-31T07:16:15.200Z,17.78
2022-07-31T07:18:43.319Z,18.03
2022-07-31T07:21:10.828Z,17.94
2022-07-31T07:23:38.006Z,17.95
2022-07-31T07:26:05.432Z,17.99
2022-07-31T07:28:32.999Z,17.99
2022-07-31T07:31:00.039Z,17.94
2022-07-31T07:33:41.439Z,17.93
2022-07-31T07:36:24.010Z,17.96
2022-07-31T07:38:55.420Z,17.82
2022-07-31T07:41:25.102Z,17.93
2022-07-31T07:43:53.032Z,17.97
2022-07-31T07:46:24.210Z,18.00
2022-07-31T07:48:51.683Z,18.03
2022-07-31T07:51:19.781Z,18.20
2022-07-31T07:53:46.798Z,18.13
2022-07-31T07:56:13.771Z,18.17
2022-07-31T07:58:40.940Z,18.11
2022-07-31T08:01:08.462Z,18.27
2022-07-31T08:03:49.405Z,18.28
2022-07-31T08:06:20.263Z,18.26
2022-07-31T08:08:47.830Z,18.31
2022-07-31T08:11:17.282Z,18.38
2022-07-31T08:13:50.129Z,18.44
2022-07-31T08:16:19.404Z,18.45
2022-07-31T08:18:46.803Z,18.53
2022-07-31T08:21:13.755Z,18.72
2022-07-31T08:23:40.741Z,18.90
2022-07-31T08:26:10.615Z,18.86
2022-07-31T08:28:38.589Z,18.65
2022-07-31T08:31:05.725Z,18.60
2022-07-31T08:33:35.739Z,18.67
2022-07-31T08:36:04.462Z,18.63
2022-07-31T08:38:31.429Z,18.58
2022-07-31T08:40:58.385Z,18.84
2022-07-31T08:44:02.575Z,18.77
2022-07-31T08:46:13.275Z,18.74
2022-07-31T08:48:43.639Z,18.77
2022-07-31T08:51:14.045Z,18.74
2022-07-31T08:53:43.933Z,18.62
2022-07-31T08:56:11.350Z,18.72
2022-07-31T08:58:39.912Z,18.88
2022-07-31T09:01:11.261Z,18.75
2022-07-31T09:03:38.685Z,18.68
2022-07-31T09:06:06.791Z,18.78
2022-07-31T09:08:36.238Z,18.75
2022-07-31T09:11:10.016Z,18.76
2022-07-31T09:13:37.603Z,18.84
2022-07-31T09:16:06.267Z,18.87
2022-07-31T09:18:33.503Z,18.91
2022-07-31T09:21:07.073Z,19.18
2022-07-31T09:23:43.532Z,19.18
2022-07-31T09:26:10.504Z,19.09
2022-07-31T09:28:46.912Z,19.08
2022-07-31T09:31:14.972Z,19.05
2022-07-31T09:33:46.730Z,18.90
2022-07-31T09:36:32.398Z,18.91
2022-07-31T09:39:27.043Z,18.98
2022-07-31T09:41:58.289Z,18.97
2022-07-31T09:44:43.675Z,18.96
2022-07-31T09:47:28.034Z,18.89
2022-07-31T09:50:04.484Z,18.88
2022-07-31T09:52:32.777Z,18.96
2022-07-31T09:55:17.029Z,18.87
2022-07-31T09:57:55.436Z,18.85
2022-07-31T10:00:23.773Z,18.90
2022-07-31T10:02:54.613Z,18.96
2022-07-31T10:05:26.747Z,18.91
2022-07-31T10:07:58.082Z,18.93
2022-07-31T10:10:28.410Z,18.97
2022-07-31T10:12:59.719Z,19.03
2022-07-31T10:15:28.343Z,18.99
2022-07-31T10:17:56.648Z,18.99
2022-07-31T10:20:26.687Z,19.02
2022-07-31T10:22:59.384Z,19.00
2022-07-31T10:25:29.607Z,19.04
2022-07-31T10:27:57.469Z,19.20
2022-07-31T10:30:28.511Z,19.05
2022-07-31T10:32:57.085Z,19.26
2022-07-31T10:35:24.271Z,19.21
2022-07-31T10:38:19.042Z,19.36
2022-07-31T10:40:55.904Z,19.36
2022-07-31T10:44:09.514Z,19.36
2022-07-31T10:46:37.022Z,19.30
2022-07-31T10:49:08.712Z,19.29
2022-07-31T10:51:50.495Z,19.36
2022-07-31T10:54:17.564Z,19.19
2022-07-31T10:56:46.340Z,19.18
2022-07-31T10:59:13.543Z,19.28
2022-07-31T11:01:53.092Z,19.27
2022-07-31T11:04:29.238Z,19.24
2022-07-31T11:06:56.567Z,19.30
2022-07-31T11:09:25.217Z,19.31
2022-07-31T11:11:52.621Z,19.39
2022-07-31T11:14:30.917Z,19.51
2022-07-31T11:16:57.948Z,19.50
2022-07-31T11:19:25.818Z,19.69
2022-07-31T11:21:57.334Z,19.59
2022-07-31T11:24:24.486Z,19.57
2022-07-31T11:26:57.387Z,19.72
2022-07-31T11:29:59.337Z,19.79
2022-07-31T11:32:26.756Z,19.75
2022-07-31T11:34:56.793Z,19.76
2022-07-31T11:37:46.526Z,19.76
2022-07-31T11:40:22.166Z,19.69
2022-07-31T11:43:10.342Z,19.68
2022-07-31T11:45:49.894Z,19.65
2022-07-31T11:48:19.342Z,19.52
2022-07-31T11:50:48.773Z,19.50
2022-07-31T11:53:17.600Z,19.39
2022-07-31T11:56:05.383Z,19.46
2022-07-31T11:58:32.419Z,19.49
2022-07-31T12:01:02.225Z,19.74
2022-07-31T12:03:34.174Z,19.85
2022-07-31T12:06:01.573Z,19.74
2022-07-31T12:08:29.656Z,19.51
2022-07-31T12:10:59.874Z,19.44
2022-07-31T12:13:28.112Z,19.41
2022-07-31T12:16:00.501Z,19.42
2022-07-31T12:18:29.119Z,19.46
2022-07-31T12:21:05.716Z,19.52
2022-07-31T12:23:52.396Z,19.60
2022-07-31T12:26:25.919Z,19.67
2022-07-31T12:29:05.996Z,19.56
2022-07-31T12:31:51.736Z,19.57
2022-07-31T12:34:40.885Z,19.62
2022-07-31T12:37:13.962Z,19.60
2022-07-31T12:40:00.222Z,19.70
2022-07-31T12:42:40.705Z,19.62
2022-07-31T12:45:18.188Z,19.68
2022-07-31T12:47:51.402Z,19.61
2022-07-31T12:50:20.902Z,19.69
2022-07-31T12:52:48.246Z,19.68
2022-07-31T12:55:17.018Z,19.75
2022-07-31T12:57:50.535Z,19.86
2022-07-31T13:00:22.780Z,19.74
2022-07-31T13:02:52.026Z,19.60
2022-07-31T13:05:19.798Z,19.63
2022-07-31T13:07:47.355Z,19.57
2022-07-31T13:10:14.813Z,19.59
2022-07-31T13:12:50.299Z,19.77
2022-07-31T13:15:23.431Z,19.74
2022-07-31T13:17:51.178Z,19.70
2022-07-31T13:20:19.271Z,19.62
2022-07-31T13:22:46.379Z,19.60
2022-07-31T13:25:13.801Z,19.55
2022-07-31T13:27:41.852Z,19.41
2022-07-31T13:30:10.821Z,19.43
2022-07-31T13:32:37.787Z,19.66
2022-07-31T13:35:25.417Z,19.55
2022-07-31T13:37:54.021Z,19.64
2022-07-31T13:40:41.059Z,19.48
2022-07-31T13:43:08.193Z,19.70
2022-07-31T13:45:35.337Z,19.78
2022-07-31T13:48:04.443Z,19.65
2022-07-31T13:50:37.282Z,19.60
2022-07-31T13:53:04.679Z,19.69
2022-07-31T13:55:32.058Z,19.83
2022-07-31T13:58:01.071Z,19.85
2022-07-31T14:00:30.593Z,19.75
2022-07-31T14:02:58.129Z,19.81
2022-07-31T14:05:27.495Z,19.83
2022-07-31T14:07:56.388Z,19.89
2022-07-31T14:10:43.463Z,19.65
2022-07-31T14:13:15.644Z,19.59
2022-07-31T14:15:43.097Z,19.50
2022-07-31T14:18:10.057Z,19.56
2022-07-31T14:20:37.216Z,19.54
2022-07-31T14:23:05.129Z,19.49
2022-07-31T14:25:35.177Z,19.44
2022-07-31T14:28:02.445Z,19.55
2022-07-31T14:30:29.666Z,19.49
2022-07-31T14:32:57.258Z,19.50
2022-07-31T14:35:24.292Z,19.82
2022-07-31T14:37:51.306Z,19.78
2022-07-31T14:40:18.598Z,19.79
2022-07-31T14:42:45.677Z,19.67
2022-07-31T14:45:12.977Z,19.55
2022-07-31T14:47:39.992Z,19.66
2022-07-31T14:50:12.057Z,19.73
2022-07-31T14:52:40.776Z,19.75
2022-07-31T14:55:08.964Z,19.80
2022-07-31T14:57:35.910Z,19.69
2022-07-31T15:00:03.695Z,19.78
2022-07-31T15:02:30.672Z,19.78
2022-07-31T15:04:57.633Z,19.97
2022-07-31T15:07:46.992Z,20.01
2022-07-31T15:10:14.642Z,20.12
2022-07-31T15:12:41.767Z,20.02
2022-07-31T15:15:09.683Z,19.99
2022-07-31T15:17:36.731Z,19.88
2022-07-31T15:20:04.361Z,19.74
2022-07-31T15:22:31.361Z,19.86
2022-07-31T15:24:58.332Z,19.97
2022-07-31T15:27:25.715Z,19.86
2022-07-31T15:30:00.172Z,19.92
2022-07-31T15:32:39.193Z,19.96
2022-07-31T15:35:11.280Z,19.96
2022-07-31T15:37:41.129Z,19.97
2022-07-31T15:40:12.214Z,19.95
2022-07-31T15:42:42.324Z,20.12
2022-07-31T15:45:16.862Z,19.86
2022-07-31T15:47:44.810Z,19.83
2022-07-31T15:50:15.080Z,19.93
2022-07-31T15:52:42.701Z,19.82
2022-07-31T15:55:10.584Z,19.76
2022-07-31T15:57:38.643Z,20.02
2022-07-31T16:00:10.500Z,19.71
2022-07-31T16:02:38.190Z,19.65
2022-07-31T16:05:11.960Z,19.71
2022-07-31T16:08:28.941Z,19.75
2022-07-31T16:10:36.515Z,19.69
2022-07-31T16:13:03.827Z,19.74
2022-07-31T16:15:31.993Z,19.84
2022-07-31T16:17:58.952Z,19.91
2022-07-31T16:20:27.086Z,19.75
2022-07-31T16:22:58.722Z,19.81
2022-07-31T16:25:27.490Z,19.70
2022-07-31T16:27:55.232Z,19.58
2022-07-31T16:30:23.100Z,19.55
2022-07-31T16:32:50.249Z,19.84
2022-07-31T16:35:17.403Z,20.10
2022-07-31T16:37:52.555Z,19.75
2022-07-31T16:40:29.150Z,19.83
2022-07-31T16:43:48.266Z,19.78
2022-07-31T16:45:55.537Z,19.84
2022-07-31T16:48:23.209Z,19.76
2022-07-31T16:50:54.201Z,19.71
2022-07-31T16:54:11.312Z,19.84
2022-07-31T16:56:15.830Z,19.66
2022-07-31T16:58:44.138Z,19.75
2022-07-31T17:01:57.079Z,20.12
2022-07-31T17:04:03.603Z,20.06
2022-07-31T17:06:36.459Z,20.31
2022-07-31T17:09:17.208Z,20.14
2022-07-31T17:11:48.246Z,20.17
2022-07-31T17:14:17.726Z,20.13
2022-07-31T17:16:48.142Z,19.84
2022-07-31T17:19:43.029Z,19.90
2022-07-31T17:22:04.957Z,19.81
2022-07-31T17:24:32.052Z,20.07
2022-07-31T17:26:59.787Z,19.93
2022-07-31T17:29:26.775Z,19.86
2022-07-31T17:31:53.775Z,19.70
2022-07-31T17:34:20.732Z,19.94
2022-07-31T17:36:50.196Z,19.79
2022-07-31T17:39:17.511Z,19.54
2022-07-31T17:41:44.698Z,19.14
2022-07-31T17:44:11.746Z,19.13
2022-07-31T17:46:48.285Z,19.16
2022-07-31T17:49:19.513Z,19.10
2022-07-31T17:51:57.923Z,19.09
2022-07-31T17:54:35.363Z,19.42
2022-07-31T17:57:02.699Z,19.75
2022-07-31T17:59:29.879Z,19.85
2022-07-31T18:02:03.230Z,19.67
2022-07-31T18:04:33.078Z,19.68
2022-07-31T18:07:01.758Z,19.48
2022-07-31T18:09:29.054Z,19.50
2022-07-31T18:11:57.544Z,19.69
2022-07-31T18:14:25.078Z,19.75
2022-07-31T18:16:53.187Z,19.88
2022-07-31T18:19:22.208Z,19.98
2022-07-31T18:21:50.191Z,19.67
2022-07-31T18:24:17.430Z,19.72
2022-07-31T18:26:44.462Z,19.96
2022-07-31T18:29:11.597Z,19.97
2022-07-31T18:31:38.955Z,19.65
2022-07-31T18:34:07.720Z,19.66
2022-07-31T18:36:35.323Z,19.50
2022-07-31T18:39:04.737Z,19.48
2022-07-31T18:41:34.073Z,19.50
2022-07-31T18:44:01.206Z,19.59
2022-07-31T18:46:28.498Z,19.54
2022-07-31T18:48:56.680Z,19.69
2022-07-31T18:51:28.874Z,19.71
2022-07-31T18:53:56.483Z,19.86
2022-07-31T18:56:24.993Z,19.86
2022-07-31T18:58:53.415Z,19.82
2022-07-31T19:01:21.573Z,19.71
2022-07-31T19:03:49.471Z,19.67
2022-07-31T19:06:17.223Z,19.49
2022-07-31T19:08:44.341Z,19.49
2022-07-31T19:11:12.277Z,19.59
2022-07-31T19:13:39.292Z,19.46
2022-07-31T19:16:06.772Z,19.58
2022-07-31T19:18:34.158Z,19.77
2022-07-31T19:21:21.286Z,19.47
2022-07-31T19:23:49.593Z,19.64
2022-07-31T19:26:16.759Z,19.47
2022-07-31T19:28:44.162Z,19.44
2022-07-31T19:31:13.672Z,19.75
2022-07-31T19:33:41.153Z,19.49
2022-07-31T19:36:10.632Z,19.36
2022-07-31T19:38:37.810Z,19.27
2022-07-31T19:41:04.830Z,19.36
2022-07-31T19:43:33.288Z,19.17
2022-07-31T19:46:10.531Z,19.17
2022-07-31T19:48:48.588Z,19.08
2022-07-31T19:51:16.241Z,19.07
2022-07-31T19:53:44.552Z,19.17
2022-07-31T19:56:18.144Z,19.02
2022-07-31T19:58:47.712Z,18.88
2022-07-31T20:01:14.702Z,18.73
2022-07-31T20:03:41.929Z,18.84
2022-07-31T20:06:08.963Z,19.02
2022-07-31T20:08:36.216Z,19.27
2022-07-31T20:11:05.445Z,19.52
2022-07-31T20:13:34.577Z,19.38
2022-07-31T20:16:02.268Z,19.45
2022-07-31T20:18:30.644Z,19.30
2022-07-31T20:21:03.405Z,19.45
2022-07-31T20:23:34.038Z,19.53
2022-07-31T20:26:01.497Z,19.32
2022-07-31T20:28:28.576Z,19.55
2022-07-31T20:30:55.584Z,19.79
2022-07-31T20:33:22.741Z,19.93
2022-07-31T20:35:50.507Z,19.85
2022-07-31T20:38:19.601Z,19.29
2022-07-31T20:40:53.667Z,19.35
2022-07-31T20:43:27.896Z,19.51
2022-07-31T20:45:58.060Z,19.26
2022-07-31T20:48:32.041Z,19.45
2022-07-31T20:51:01.684Z,19.26
2022-07-31T20:53:30.302Z,19.65
2022-07-31T20:55:58.055Z,19.67
2022-07-31T20:58:26.861Z,19.64
2022-07-31T21:00:54.332Z,19.41
2022-07-31T21:03:21.991Z,19.18
2022-07-31T21:05:49.371Z,19.16
2022-07-31T21:08:17.897Z,19.22
2022-07-31T21:10:45.455Z,19.24
2022-07-31T21:13:12.711Z,19.07
2022-07-31T21:15:43.584Z,18.77
2022-07-31T21:18:19.643Z,18.96
2022-07-31T21:20:50.751Z,18.97
2022-07-31T21:23:21.872Z,18.72
2022-07-31T21:25:49.694Z,18.59
2022-07-31T21:28:16.899Z,18.64
2022-07-31T21:30:44.102Z,18.67
2022-07-31T21:33:11.460Z,18.62
2022-07-31T21:35:40.164Z,18.43
2022-07-31T21:38:11.795Z,18.27
2022-07-31T21:40:40.509Z,18.28
2022-07-31T21:43:09.175Z,18.20
2022-07-31T21:45:43.439Z,18.15
2022-07-31T21:48:25.200Z,18.21
2022-07-31T21:50:53.261Z,18.07
2022-07-31T21:53:20.555Z,18.16
2022-07-31T21:55:47.547Z,18.08
2022-07-31T21:58:14.680Z,18.03
2022-07-31T22:00:41.833Z,18.05
2022-07-31T22:03:08.918Z,17.99
2022-07-31T22:05:54.860Z,17.94
2022-07-31T22:08:21.911Z,17.93
2022-07-31T22:10:51.735Z,18.01
2022-07-31T22:13:20.013Z,17.96
2022-07-31T22:15:58.263Z,17.83
2022-07-31T22:18:33.107Z,17.86
2022-07-31T22:21:03.087Z,17.95
2022-07-31T22:23:30.512Z,18.07
2022-07-31T22:25:58.251Z,18.04
2022-07-31T22:28:26.997Z,17.99
2022-07-31T22:30:56.939Z,17.92
2022-07-31T22:33:24.571Z,17.98
2022-07-31T22:35:58.580Z,17.88
2022-07-31T22:38:29.331Z,17.82
2022-07-31T22:40:57.054Z,17.97
2022-07-31T22:44:10.877Z,17.95
2022-07-31T22:46:14.462Z,17.96
2022-07-31T22:48:41.678Z,17.86
2022-07-31T22:51:10.740Z,17.79
2022-07-31T22:53:41.456Z,17.84
2022-07-31T22:56:08.465Z,17.92
2022-07-31T22:58:35.490Z,17.85
2022-07-31T23:01:02.474Z,18.00
2022-07-31T23:03:29.515Z,18.09
2022-07-31T23:06:03.049Z,17.96
2022-07-31T23:08:43.928Z,17.96
2022-07-31T23:11:10.948Z,17.82
2022-07-31T23:13:39.832Z,17.79
2022-07-31T23:16:06.841Z,17.71
2022-07-31T23:18:34.245Z,17.65
2022-07-31T23:21:01.186Z,17.64
2022-07-31T23:23:28.198Z,17.69
2022-07-31T23:25:55.135Z,17.73
2022-07-31T23:28:22.116Z,17.62
2022-07-31T23:30:49.076Z,17.52
2022-07-31T23:33:16.985Z,17.50
2022-07-31T23:35:44.293Z,17.52
2022-07-31T23:38:12.115Z,17.51
2022-07-31T23:40:39.102Z,17.76
2022-07-31T23:43:06.079Z,17.64
2022-07-31T23:45:33.078Z,17.59
2022-07-31T23:48:00.097Z,17.58
2022-07-31T23:50:27.756Z,17.47
2022-07-31T23:52:54.704Z,17.42
2022-07-31T23:55:22.060Z,17.42
2022-07-31T23:57:51.089Z,17.45
